createdAt,value
2018-03-31T00:00:56.982Z,21.60
2018-03-31T00:03:23.848Z,21.83
2018-03-31T00:05:50.714Z,20.93
2018-03-31T00:08:17.596Z,18.73
2018-03-31T00:10:44.478Z,16.53
2018-03-31T00:13:11.350Z,19.47
2018-03-31T00:15:38.219Z,20.00
2018-03-31T00:18:05.150Z,20.23
2018-03-31T00:20:31.994Z,18.47
2018-03-31T00:22:58.867Z,17.87
2018-03-31T00:25:26.082Z,19.07
2018-03-31T00:27:52.965Z,18.10
2018-03-31T00:30:19.838Z,19.47
2018-03-31T00:32:46.721Z,18.00
2018-03-31T00:35:13.593Z,19.00
2018-03-31T00:37:40.484Z,20.50
2018-03-31T00:40:07.349Z,19.43
2018-03-31T00:42:34.419Z,19.67
2018-03-31T00:45:01.299Z,19.53
2018-03-31T00:47:28.281Z,18.93
2018-03-31T00:49:55.177Z,18.33
2018-03-31T00:52:22.193Z,19.17
2018-03-31T00:54:49.071Z,18.70
2018-03-31T00:57:15.954Z,18.20
2018-03-31T00:59:42.814Z,18.60
2018-03-31T01:02:09.797Z,16.67
2018-03-31T01:04:36.666Z,16.93
2018-03-31T01:07:03.542Z,15.37
2018-03-31T01:09:30.417Z,16.83
2018-03-31T01:11:57.326Z,16.47
2018-03-31T01:14:24.193Z,18.10
2018-03-31T01:16:51.063Z,17.80
2018-03-31T01:19:17.941Z,16.50
2018-03-31T01:21:44.813Z,16.90
2018-03-31T01:24:11.704Z,14.53
2018-03-31T01:26:38.565Z,16.53
2018-03-31T01:29:05.445Z,17.60
2018-03-31T01:31:32.315Z,16.53
2018-03-31T01:33:59.177Z,16.43
2018-03-31T01:36:26.048Z,16.33
2018-03-31T01:38:52.917Z,14.63
2018-03-31T01:41:19.801Z,15.77
2018-03-31T01:43:46.670Z,16.03
2018-03-31T01:46:13.558Z,15.37
2018-03-31T01:48:40.427Z,15.93
2018-03-31T01:51:07.310Z,15.50
2018-03-31T01:53:34.177Z,15.80
2018-03-31T01:56:01.073Z,18.17
2018-03-31T01:58:27.965Z,14.30
2018-03-31T02:00:54.983Z,16.03
2018-03-31T02:03:21.902Z,14.23
2018-03-31T02:05:48.802Z,14.40
2018-03-31T02:08:15.680Z,15.73
2018-03-31T02:10:42.565Z,14.23
2018-03-31T02:13:09.437Z,13.10
2018-03-31T02:15:36.312Z,15.23
2018-03-31T02:18:03.293Z,15.93
2018-03-31T02:20:30.178Z,16.90
2018-03-31T02:22:57.062Z,15.63
2018-03-31T02:25:23.986Z,15.20
2018-03-31T02:27:50.907Z,15.47
2018-03-31T02:30:17.868Z,13.80
2018-03-31T02:32:44.791Z,14.80
2018-03-31T02:35:11.642Z,15.20
2018-03-31T02:37:38.510Z,12.87
2018-03-31T02:40:05.393Z,13.93
2018-03-31T02:42:32.263Z,14.50
2018-03-31T02:44:59.154Z,14.43
2018-03-31T02:47:26.028Z,16.43
2018-03-31T02:49:52.947Z,15.33
2018-03-31T02:52:19.818Z,13.77
2018-03-31T02:54:46.714Z,15.87
2018-03-31T02:57:13.621Z,15.90
2018-03-31T02:59:40.486Z,16.77
2018-03-31T03:02:07.360Z,14.53
2018-03-31T03:04:34.231Z,13.67
2018-03-31T03:07:01.116Z,15.40
2018-03-31T03:09:28.006Z,14.97
2018-03-31T03:11:54.910Z,13.23
2018-03-31T03:14:21.835Z,15.33
2018-03-31T03:16:48.713Z,14.83
2018-03-31T03:19:15.593Z,15.07
2018-03-31T03:21:42.478Z,14.53
2018-03-31T03:24:09.352Z,13.10
2018-03-31T03:26:36.227Z,13.40
2018-03-31T03:29:03.090Z,13.70
2018-03-31T03:31:30.013Z,14.50
2018-03-31T03:33:56.917Z,17.17
2018-03-31T03:36:23.895Z,17.57
2018-03-31T03:38:51.167Z,20.83
2018-03-31T03:41:18.037Z,18.43
2018-03-31T03:43:45.011Z,18.43
2018-03-31T03:46:11.872Z,19.97
2018-03-31T03:48:38.751Z,21.00
2018-03-31T03:51:05.628Z,23.13
2018-03-31T03:53:32.505Z,18.23
2018-03-31T03:55:59.393Z,20.03
2018-03-31T03:58:26.262Z,17.70
2018-03-31T04:00:53.124Z,18.60
2018-03-31T04:03:20.238Z,16.83
2018-03-31T04:05:47.106Z,16.53
2018-03-31T04:08:13.970Z,17.27
2018-03-31T04:10:40.850Z,17.03
2018-03-31T04:13:07.714Z,16.97
2018-03-31T04:15:34.606Z,16.90
2018-03-31T04:18:01.477Z,17.47
2018-03-31T04:20:28.345Z,16.43
2018-03-31T04:22:55.230Z,16.07
2018-03-31T04:25:22.118Z,17.20
2018-03-31T04:27:49.002Z,15.77
2018-03-31T04:30:15.873Z,16.00
2018-03-31T04:32:42.761Z,15.87
2018-03-31T04:35:09.645Z,15.33
2018-03-31T04:37:36.510Z,17.67
2018-03-31T04:40:03.390Z,16.83
2018-03-31T04:42:30.277Z,16.00
2018-03-31T04:44:57.186Z,17.07
2018-03-31T04:47:24.096Z,19.43
2018-03-31T04:49:50.984Z,21.90
2018-03-31T04:52:17.892Z,21.23
2018-03-31T04:54:44.756Z,20.30
2018-03-31T04:57:11.635Z,20.97
2018-03-31T04:59:38.517Z,20.13
2018-03-31T05:02:05.382Z,20.10
2018-03-31T05:04:32.270Z,17.67
2018-03-31T05:06:59.176Z,19.00
2018-03-31T05:09:26.083Z,18.53
2018-03-31T05:11:53.013Z,18.77
2018-03-31T05:14:19.888Z,22.20
2018-03-31T05:16:46.749Z,20.27
2018-03-31T05:19:13.636Z,20.00
2018-03-31T05:21:40.498Z,18.50
2018-03-31T05:24:07.384Z,19.30
2018-03-31T05:26:34.249Z,20.97
2018-03-31T05:29:01.138Z,24.67
2018-03-31T05:31:28.014Z,21.40
2018-03-31T05:33:54.893Z,21.87
2018-03-31T05:36:21.764Z,19.63
2018-03-31T05:38:48.637Z,20.57
2018-03-31T05:41:15.532Z,19.77
2018-03-31T05:43:42.407Z,20.87
2018-03-31T05:46:09.269Z,19.50
2018-03-31T05:48:36.153Z,19.80
2018-03-31T05:51:03.019Z,18.17
2018-03-31T05:53:29.878Z,18.23
2018-03-31T05:55:56.761Z,18.30
2018-03-31T05:58:23.623Z,18.90
2018-03-31T06:00:50.541Z,19.40
2018-03-31T06:03:17.409Z,20.77
2018-03-31T06:05:44.291Z,20.03
2018-03-31T06:08:11.158Z,22.27
2018-03-31T06:10:38.054Z,20.23
2018-03-31T06:13:04.920Z,19.23
2018-03-31T06:15:31.792Z,19.40
2018-03-31T06:17:58.678Z,19.97
2018-03-31T06:20:25.563Z,20.43
2018-03-31T06:22:52.421Z,18.93
2018-03-31T06:25:19.315Z,18.77
2018-03-31T06:27:46.172Z,18.00
2018-03-31T06:30:13.058Z,18.30
2018-03-31T06:32:39.922Z,19.60
2018-03-31T06:35:06.799Z,16.60
2018-03-31T06:37:33.681Z,15.70
2018-03-31T06:40:00.561Z,14.77
2018-03-31T06:42:27.429Z,14.47
2018-03-31T06:44:54.310Z,15.77
2018-03-31T06:47:21.190Z,14.97
2018-03-31T06:49:48.069Z,14.37
2018-03-31T06:52:14.960Z,15.63
2018-03-31T06:54:41.871Z,14.77
2018-03-31T06:57:08.717Z,17.27
2018-03-31T06:59:35.589Z,15.60
2018-03-31T07:02:02.474Z,15.73
2018-03-31T07:04:29.353Z,16.97
2018-03-31T07:06:56.238Z,15.27
2018-03-31T07:09:23.109Z,15.50
2018-03-31T07:11:49.994Z,15.87
2018-03-31T07:14:16.867Z,17.23
2018-03-31T07:16:43.721Z,15.17
2018-03-31T07:19:10.610Z,15.67
2018-03-31T07:21:47.606Z,17.10
2018-03-31T07:24:14.473Z,15.73
2018-03-31T07:26:41.341Z,18.13
2018-03-31T07:29:08.229Z,16.67
2018-03-31T07:31:35.099Z,16.67
2018-03-31T07:34:01.977Z,16.80
2018-03-31T07:36:28.861Z,15.83
2018-03-31T07:38:55.753Z,17.40
2018-03-31T07:41:22.625Z,16.50
2018-03-31T07:43:49.495Z,16.63
2018-03-31T07:46:16.374Z,17.80
2018-03-31T07:48:43.246Z,18.03
2018-03-31T07:51:10.131Z,18.37
2018-03-31T07:53:36.993Z,17.13
2018-03-31T07:56:03.881Z,17.93
2018-03-31T07:58:30.761Z,17.90
2018-03-31T08:00:57.763Z,17.90
2018-03-31T08:03:24.613Z,16.40
2018-03-31T08:05:51.542Z,16.50
2018-03-31T08:08:18.430Z,17.37
2018-03-31T08:10:45.302Z,17.43
2018-03-31T08:13:12.195Z,17.20
2018-03-31T08:15:39.069Z,17.03
2018-03-31T08:18:05.954Z,17.40
2018-03-31T08:20:32.826Z,16.17
2018-03-31T08:22:59.709Z,17.43
2018-03-31T08:25:26.582Z,17.23
2018-03-31T08:27:53.458Z,16.70
2018-03-31T08:30:20.336Z,17.87
2018-03-31T08:32:47.218Z,17.53
2018-03-31T08:35:14.110Z,17.03
2018-03-31T08:37:41.060Z,17.90
2018-03-31T08:40:07.921Z,15.60
2018-03-31T08:42:34.802Z,17.40
2018-03-31T08:45:01.673Z,17.00
2018-03-31T08:47:28.594Z,17.17
2018-03-31T08:49:55.514Z,16.00
2018-03-31T08:52:22.443Z,18.00
2018-03-31T08:54:49.332Z,15.93
2018-03-31T08:57:16.217Z,16.30
2018-03-31T08:59:43.106Z,17.67
2018-03-31T09:02:09.997Z,17.10
2018-03-31T09:04:36.866Z,18.20
2018-03-31T09:07:03.756Z,18.47
2018-03-31T09:09:30.622Z,18.73
2018-03-31T09:11:57.506Z,16.87
2018-03-31T09:14:24.374Z,16.93
2018-03-31T09:16:51.258Z,18.03
2018-03-31T09:19:18.131Z,17.07
2018-03-31T09:21:45.022Z,17.37
2018-03-31T09:24:11.886Z,17.90
2018-03-31T09:26:38.770Z,17.37
2018-03-31T09:29:05.661Z,16.47
2018-03-31T09:31:32.529Z,17.97
2018-03-31T09:33:59.405Z,17.70
2018-03-31T09:36:26.272Z,16.80
2018-03-31T09:38:53.169Z,17.57
2018-03-31T09:41:20.030Z,15.50
2018-03-31T09:43:46.934Z,16.77
2018-03-31T09:46:13.810Z,18.00
2018-03-31T09:48:40.693Z,17.90
2018-03-31T09:51:07.562Z,19.80
2018-03-31T09:53:34.446Z,19.27
2018-03-31T09:56:01.381Z,18.20
2018-03-31T09:58:28.355Z,20.13
2018-03-31T10:01:00.881Z,20.80
2018-03-31T10:03:27.757Z,21.70
2018-03-31T10:05:54.679Z,22.77
2018-03-31T10:08:21.519Z,23.67
2018-03-31T10:10:48.397Z,22.43
2018-03-31T10:13:15.385Z,19.63
2018-03-31T10:15:42.298Z,20.57
2018-03-31T10:18:09.173Z,18.80
2018-03-31T10:20:36.062Z,19.30
2018-03-31T10:23:02.993Z,18.10
2018-03-31T10:25:29.877Z,19.57
2018-03-31T10:27:56.751Z,20.33
2018-03-31T10:30:23.914Z,19.57
2018-03-31T10:32:50.830Z,19.23
2018-03-31T10:35:17.707Z,19.60
2018-03-31T10:37:44.589Z,19.27
2018-03-31T10:40:11.491Z,19.77
2018-03-31T10:42:38.651Z,19.53
2018-03-31T10:45:05.502Z,17.43
2018-03-31T10:47:32.422Z,18.57
2018-03-31T10:49:59.346Z,18.87
2018-03-31T10:52:26.262Z,18.73
2018-03-31T10:54:53.157Z,17.83
2018-03-31T10:57:20.080Z,19.50
2018-03-31T10:59:47.019Z,17.73
2018-03-31T11:02:13.887Z,17.67
2018-03-31T11:04:40.773Z,16.27
2018-03-31T11:07:07.656Z,16.60
2018-03-31T11:09:34.536Z,16.40
2018-03-31T11:12:01.421Z,18.10
2018-03-31T11:14:28.312Z,17.90
2018-03-31T11:16:55.188Z,19.60
2018-03-31T11:19:22.069Z,19.87
2018-03-31T11:21:48.945Z,20.60
2018-03-31T11:24:15.828Z,20.13
2018-03-31T11:26:42.685Z,19.67
2018-03-31T11:29:09.569Z,17.93
2018-03-31T11:31:36.440Z,18.20
2018-03-31T11:34:03.323Z,18.23
2018-03-31T11:36:30.198Z,17.73
2018-03-31T11:38:57.082Z,18.77
2018-03-31T11:41:23.946Z,16.27
2018-03-31T11:43:50.826Z,17.73
2018-03-31T11:46:17.706Z,17.47
2018-03-31T11:48:44.599Z,19.27
2018-03-31T11:51:11.482Z,19.00
2018-03-31T11:53:38.362Z,17.90
2018-03-31T11:56:05.250Z,18.23
2018-03-31T11:58:33.610Z,15.53
2018-03-31T12:01:06.878Z,16.73
2018-03-31T12:03:33.790Z,16.33
2018-03-31T12:06:00.669Z,16.83
2018-03-31T12:08:27.572Z,16.63
2018-03-31T12:10:54.556Z,18.10
2018-03-31T12:13:21.572Z,17.27
2018-03-31T12:15:48.511Z,18.13
2018-03-31T12:18:15.374Z,16.57
2018-03-31T12:20:42.274Z,16.70
2018-03-31T12:23:09.157Z,16.73
2018-03-31T12:25:37.234Z,15.80
2018-03-31T12:28:04.105Z,16.27
2018-03-31T12:30:31.010Z,18.20
2018-03-31T12:32:57.896Z,17.83
2018-03-31T12:35:24.759Z,18.17
2018-03-31T12:37:51.645Z,20.00
2018-03-31T12:40:18.552Z,19.10
2018-03-31T12:42:45.440Z,19.07
2018-03-31T12:45:12.305Z,18.33
2018-03-31T12:47:39.175Z,18.93
2018-03-31T12:50:06.065Z,18.70
2018-03-31T12:52:33.009Z,19.53
2018-03-31T12:54:59.985Z,20.13
2018-03-31T12:57:26.969Z,20.23
2018-03-31T12:59:53.875Z,21.17
2018-03-31T13:02:21.514Z,21.00
2018-03-31T13:04:48.424Z,20.00
2018-03-31T13:07:16.070Z,19.30
2018-03-31T13:09:42.956Z,21.07
2018-03-31T13:12:09.844Z,22.70
2018-03-31T13:14:36.723Z,17.37
2018-03-31T13:17:03.597Z,23.63
2018-03-31T13:19:30.522Z,29.17
2018-03-31T13:21:57.390Z,26.70
2018-03-31T13:24:24.282Z,26.97
2018-03-31T13:26:51.173Z,26.20
2018-03-31T13:29:18.071Z,28.77
2018-03-31T13:31:44.958Z,27.73
2018-03-31T13:34:11.856Z,24.47
2018-03-31T13:36:38.758Z,25.57
2018-03-31T13:39:05.643Z,25.33
2018-03-31T13:41:32.618Z,26.80
2018-03-31T13:43:59.585Z,26.97
2018-03-31T13:46:26.534Z,27.83
2018-03-31T13:48:53.544Z,26.70
2018-03-31T13:51:20.462Z,27.10
2018-03-31T13:53:47.359Z,27.23
2018-03-31T13:56:14.295Z,28.33
2018-03-31T13:58:41.204Z,26.97
2018-03-31T14:01:08.078Z,28.87
2018-03-31T14:03:34.987Z,29.57
2018-03-31T14:06:01.850Z,26.10
2018-03-31T14:08:28.773Z,26.03
2018-03-31T14:10:55.642Z,25.60
2018-03-31T14:13:22.528Z,27.40
2018-03-31T14:15:49.410Z,25.10
2018-03-31T14:18:16.297Z,25.90
2018-03-31T14:20:43.189Z,25.07
2018-03-31T14:23:10.133Z,28.67
2018-03-31T14:25:37.870Z,28.73
2018-03-31T14:28:04.754Z,29.77
2018-03-31T14:30:31.637Z,27.07
2018-03-31T14:32:58.510Z,27.63
2018-03-31T14:35:25.590Z,28.77
2018-03-31T14:37:52.501Z,26.10
2018-03-31T14:40:19.400Z,25.33
2018-03-31T14:42:46.279Z,26.70
2018-03-31T14:45:13.176Z,26.50
2018-03-31T14:47:40.037Z,30.57
2018-03-31T14:50:06.917Z,30.90
2018-03-31T14:52:33.962Z,29.47
2018-03-31T14:55:00.837Z,31.43
2018-03-31T14:57:27.777Z,30.30
2018-03-31T14:59:54.757Z,30.33
2018-03-31T15:02:21.636Z,30.20
2018-03-31T15:04:48.509Z,28.80
2018-03-31T15:07:15.408Z,29.20
2018-03-31T15:09:42.273Z,31.30
2018-03-31T15:12:09.157Z,32.93
2018-03-31T15:14:36.034Z,31.03
2018-03-31T15:17:02.934Z,30.53
2018-03-31T15:19:29.859Z,33.23
2018-03-31T15:21:56.740Z,32.23
2018-03-31T15:24:23.609Z,32.13
2018-03-31T15:26:50.489Z,31.07
2018-03-31T15:29:17.369Z,29.00
2018-03-31T15:31:44.256Z,28.80
2018-03-31T15:34:11.113Z,27.73
2018-03-31T15:36:38.004Z,30.00
2018-03-31T15:39:04.876Z,31.03
2018-03-31T15:41:41.295Z,27.83
2018-03-31T15:44:08.619Z,27.70
2018-03-31T15:46:35.538Z,28.27
2018-03-31T15:49:02.367Z,29.97
2018-03-31T15:51:29.318Z,32.57
2018-03-31T15:53:56.223Z,34.03
2018-03-31T15:56:23.159Z,31.70
2018-03-31T15:58:50.041Z,32.37
2018-03-31T16:01:16.966Z,33.83
2018-03-31T16:03:43.941Z,37.53
2018-03-31T16:06:10.821Z,37.40
2018-03-31T16:08:37.686Z,41.13
2018-03-31T16:11:04.575Z,39.33
2018-03-31T16:13:31.474Z,45.63
2018-03-31T16:15:58.455Z,47.23
2018-03-31T16:18:25.390Z,42.43
2018-03-31T16:20:52.309Z,45.07
2018-03-31T16:23:19.198Z,39.50
2018-03-31T16:25:46.065Z,40.53
2018-03-31T16:28:12.956Z,41.50
2018-03-31T16:30:39.819Z,38.40
2018-03-31T16:33:06.700Z,37.40
2018-03-31T16:35:33.565Z,36.03
2018-03-31T16:38:00.490Z,33.87
2018-03-31T16:40:27.359Z,31.40
2018-03-31T16:42:54.239Z,32.37
2018-03-31T16:45:21.110Z,31.00
2018-03-31T16:47:48.002Z,30.90
2018-03-31T16:50:14.883Z,28.20
2018-03-31T16:52:41.757Z,29.47
2018-03-31T16:55:08.628Z,30.43
2018-03-31T16:57:35.509Z,30.80
2018-03-31T17:00:02.433Z,31.67
2018-03-31T17:02:29.374Z,28.30
2018-03-31T17:04:56.263Z,29.67
2018-03-31T17:07:23.170Z,31.17
2018-03-31T17:09:50.065Z,29.87
2018-03-31T17:12:17.746Z,32.40
2018-03-31T17:14:44.625Z,32.47
2018-03-31T17:17:11.589Z,32.87
2018-03-31T17:19:39.247Z,33.50
2018-03-31T17:22:06.125Z,35.37
2018-03-31T17:24:33.080Z,40.67
2018-03-31T17:27:00.014Z,39.97
2018-03-31T17:29:26.942Z,38.10
2018-03-31T17:31:53.908Z,44.87
2018-03-31T17:34:21.471Z,43.03
2018-03-31T17:36:48.443Z,45.07
2018-03-31T17:39:15.287Z,48.20
2018-03-31T17:41:42.155Z,46.37
2018-03-31T17:44:10.126Z,47.60
2018-03-31T17:46:36.989Z,44.97
2018-03-31T17:49:04.172Z,46.90
2018-03-31T17:51:31.868Z,42.47
2018-03-31T17:53:58.852Z,41.30
2018-03-31T17:56:26.324Z,44.70
2018-03-31T17:58:53.490Z,45.03
2018-03-31T18:01:20.381Z,43.00
2018-03-31T18:03:47.274Z,41.53
2018-03-31T18:06:14.169Z,39.87
2018-03-31T18:08:41.165Z,41.00
2018-03-31T18:11:08.075Z,43.47
2018-03-31T18:13:34.958Z,45.03
2018-03-31T18:16:02.752Z,41.83
2018-03-31T18:18:29.666Z,43.83
2018-03-31T18:20:56.754Z,46.57
2018-03-31T18:23:24.662Z,39.80
2018-03-31T18:25:53.683Z,47.67
2018-03-31T18:28:20.562Z,46.87
2018-03-31T18:30:47.486Z,46.57
2018-03-31T18:33:14.919Z,43.63
2018-03-31T18:35:41.795Z,42.97
2018-03-31T18:38:08.672Z,39.17
2018-03-31T18:40:35.561Z,41.20
2018-03-31T18:43:02.494Z,45.00
2018-03-31T18:45:29.479Z,49.70
2018-03-31T18:47:58.435Z,50.20
2018-03-31T18:50:25.405Z,48.67
2018-03-31T18:52:52.514Z,50.93
2018-03-31T18:55:19.400Z,44.33
2018-03-31T18:57:47.475Z,41.13
2018-03-31T19:00:14.349Z,40.33
2018-03-31T19:02:41.223Z,42.03
2018-03-31T19:05:08.726Z,42.23
2018-03-31T19:07:35.765Z,37.90
2018-03-31T19:10:02.622Z,39.53
2018-03-31T19:12:29.685Z,36.47
2018-03-31T19:14:57.746Z,33.93
2018-03-31T19:17:24.633Z,32.83
2018-03-31T19:19:51.695Z,31.53
2018-03-31T19:22:18.615Z,33.93
2018-03-31T19:24:51.042Z,38.33
2018-03-31T19:27:18.359Z,36.87
2018-03-31T19:29:45.227Z,33.60
2018-03-31T19:32:12.139Z,37.30
2018-03-31T19:34:39.261Z,33.27
2018-03-31T19:37:06.138Z,32.00
2018-03-31T19:39:39.737Z,37.57
2018-03-31T19:42:06.609Z,32.67
2018-03-31T19:44:34.646Z,34.50
2018-03-31T19:47:01.573Z,35.43
2018-03-31T19:49:28.438Z,32.13
2018-03-31T19:51:55.709Z,36.20
2018-03-31T19:54:23.354Z,37.67
2018-03-31T19:56:50.219Z,39.23
2018-03-31T19:59:17.680Z,35.17
2018-03-31T20:01:44.558Z,33.53
2018-03-31T20:04:11.427Z,34.63
2018-03-31T20:06:39.499Z,32.63
2018-03-31T20:09:06.367Z,30.17
2018-03-31T20:11:33.549Z,29.50
2018-03-31T20:14:00.458Z,27.03
2018-03-31T20:16:27.346Z,26.40
2018-03-31T20:18:54.344Z,24.70
2018-03-31T20:21:22.736Z,27.27
2018-03-31T20:23:49.672Z,28.60
2018-03-31T20:26:16.677Z,30.20
2018-03-31T20:28:43.572Z,29.90
2018-03-31T20:31:10.429Z,28.47
2018-03-31T20:33:38.509Z,29.73
2018-03-31T20:36:05.365Z,30.77
2018-03-31T20:38:32.254Z,30.43
2018-03-31T20:40:59.150Z,28.93
2018-03-31T20:43:26.090Z,29.57
2018-03-31T20:45:52.998Z,30.10
2018-03-31T20:48:19.898Z,27.87
2018-03-31T20:50:47.009Z,32.77
2018-03-31T20:53:13.952Z,30.83
2018-03-31T20:55:40.815Z,30.47
2018-03-31T20:58:07.697Z,31.10
2018-03-31T21:00:34.605Z,30.83
2018-03-31T21:03:01.471Z,31.57
2018-03-31T21:05:28.448Z,35.80
2018-03-31T21:07:55.356Z,34.37
2018-03-31T21:10:22.279Z,33.80
2018-03-31T21:12:49.158Z,32.87
2018-03-31T21:15:16.051Z,34.17
2018-03-31T21:17:43.486Z,31.60
2018-03-31T21:20:10.362Z,30.67
2018-03-31T21:22:37.235Z,34.53
2018-03-31T21:25:04.876Z,32.70
2018-03-31T21:27:31.754Z,30.50
2018-03-31T21:29:58.679Z,27.13
2018-03-31T21:32:25.590Z,24.07
2018-03-31T21:34:52.744Z,22.80
2018-03-31T21:37:19.664Z,22.80
2018-03-31T21:39:46.606Z,21.13
2018-03-31T21:42:13.589Z,22.57
2018-03-31T21:44:40.450Z,22.27
2018-03-31T21:47:07.356Z,21.03
2018-03-31T21:49:34.220Z,24.17
2018-03-31T21:52:01.102Z,27.13
2018-03-31T21:54:27.993Z,27.97
2018-03-31T21:56:54.956Z,29.13
2018-03-31T21:59:21.803Z,32.60
2018-03-31T22:01:48.694Z,32.77
2018-03-31T22:04:15.565Z,35.67
2018-03-31T22:06:42.450Z,29.87
2018-03-31T22:09:09.324Z,31.67
2018-03-31T22:11:36.202Z,30.63
2018-03-31T22:14:08.833Z,28.50
2018-03-31T22:16:35.719Z,30.70
2018-03-31T22:19:02.578Z,31.73
2018-03-31T22:21:29.453Z,29.13
2018-03-31T22:23:56.358Z,32.73
2018-03-31T22:26:23.256Z,29.73
2018-03-31T22:28:50.126Z,30.30
2018-03-31T22:31:17.026Z,30.53
2018-03-31T22:33:43.924Z,34.43
2018-03-31T22:36:10.788Z,29.43
2018-03-31T22:38:37.674Z,33.33
2018-03-31T22:41:04.550Z,31.43
2018-03-31T22:43:31.429Z,31.97
2018-03-31T22:45:58.344Z,38.80
2018-03-31T22:48:25.229Z,38.83
2018-03-31T22:50:52.132Z,36.80
2018-03-31T22:53:19.022Z,43.47
2018-03-31T22:55:45.915Z,39.67
2018-03-31T22:58:12.790Z,40.07
2018-03-31T23:00:39.657Z,40.97
2018-03-31T23:03:06.534Z,39.97
2018-03-31T23:05:33.449Z,33.07
2018-03-31T23:08:00.273Z,33.47
2018-03-31T23:10:27.162Z,37.13
2018-03-31T23:12:54.042Z,38.57
2018-03-31T23:15:20.913Z,35.90
2018-03-31T23:17:47.782Z,34.93
2018-03-31T23:20:14.657Z,38.53
2018-03-31T23:22:41.539Z,41.37
2018-03-31T23:25:08.422Z,44.63
2018-03-31T23:27:35.289Z,40.63
2018-03-31T23:30:02.506Z,38.10
2018-03-31T23:32:29.392Z,36.13
2018-03-31T23:34:56.295Z,33.70
2018-03-31T23:37:23.193Z,37.50
2018-03-31T23:39:50.067Z,39.57
2018-03-31T23:42:16.964Z,41.73
2018-03-31T23:44:43.864Z,36.80
2018-03-31T23:47:10.746Z,38.23
2018-03-31T23:49:37.609Z,39.97
2018-03-31T23:52:04.773Z,34.47
2018-03-31T23:54:31.646Z,33.63
2018-03-31T23:56:58.533Z,32.87
2018-03-31T23:59:25.413Z,42.70
